Estación Meteorológica Peña el Pijo (Robertgarden) [ 09/23/17 05:54:26 CEST ]

Fecha Hora Presion(HPa) Temp (°C) Humedad % Rocio (°C) Viento ( m/s) Direccion Lluvia 1Hora(mm) Lluvia 24H(mm) LLuvia Total(mm)
2017-Apr-07 01:02:07 1009.700 5.3 63 -1.2         1357.67
2017-Apr-07 02:01:38 1009.200 3.9 67 -1.7         1357.67
2017-Apr-07 03:10:08 1009.000 3.4 69 -1.8         1357.67
2017-Apr-07 04:04:51 1009.000 1.9 72 -2.6         1357.67
2017-Apr-07 05:10:10 1008.900 1.1 75 -2.9         1357.67
2017-Apr-07 06:07:17 1009.000 0.4 77 -3.2         1357.67
2017-Apr-07 07:01:33 1009.000 0.4 78 -3.0         1357.67
2017-Apr-07 08:01:58 1009.000 0.8 79 -2.5         1357.67
2017-Apr-07 09:01:46 1009.500 4.1 82 1.3         1357.67
2017-Apr-07 10:01:50 1009.500 11.0 64 4.4         1357.67
2017-Apr-07 11:01:44 1009.600 16.1 44 3.8 2.9 SSW     1357.67
2017-Apr-07 12:01:49 1010.000 18.1 35 2.3 4.6 S     1357.67
2017-Apr-07 13:01:41 1009.800 18.5 33 1.9 1.9 SW     1357.67
2017-Apr-07 14:01:39 1009.700 18.8 32 1.7 3.7 SSW     1357.67
2017-Apr-07 15:01:47 1009.600 17.9 33 1.3         1357.67
2017-Apr-07 16:01:49 1009.200 19.9 32 2.6         1357.67
2017-Apr-07 17:01:51 1008.900 19.4 32 2.2         1357.67
2017-Apr-07 18:01:59 1008.900 18.5 31 1.1         1357.67
2017-Apr-07 19:01:51 1009.200 17.0 30 -0.7         1357.67
2017-Apr-07 20:01:51 1009.800 13.9 37 -0.7 0.8 SSW     1357.67
2017-Apr-07 21:01:44 1010.500 11.5 45 -0.1         1357.67
2017-Apr-07 22:01:36 1011.200 10.1 54 1.2         1357.67
2017-Apr-07 23:01:46 1011.600 8.5 59 0.9         1357.67

Temperatura Máxima:19°    Temperatura Mínima:
Presión Máxima:1011.600 Hpa    Presión Mínima:1008.900 Hpa


Volver